sensor_id;sensor_type;location;lat;lon;timestamp;temperature;humidity
20041;DHT22;10181;48.072;9.884;2024-03-07T00:01:41;2.20;99.90
20041;DHT22;10181;48.072;9.884;2024-03-07T00:04:07;2.20;99.90
20041;DHT22;10181;48.072;9.884;2024-03-07T00:06:32;2.20;99.90
20041;DHT22;10181;48.072;9.884;2024-03-07T00:08:58;2.20;99.90
20041;DHT22;10181;48.072;9.884;2024-03-07T00:11:24;2.20;99.90
20041;DHT22;10181;48.072;9.884;2024-03-07T00:13:49;2.20;99.90
20041;DHT22;10181;48.072;9.884;2024-03-07T00:16:15;2.20;99.90
20041;DHT22;10181;48.072;9.884;2024-03-07T00:18:40;2.20;99.90
20041;DHT22;10181;48.072;9.884;2024-03-07T00:21:06;2.20;99.90
20041;DHT22;10181;48.072;9.884;2024-03-07T00:23:32;2.20;99.90
20041;DHT22;10181;48.072;9.884;2024-03-07T00:25:59;2.20;99.90
20041;DHT22;10181;48.072;9.884;2024-03-07T00:28:24;2.20;99.90
20041;DHT22;10181;48.072;9.884;2024-03-07T00:30:54;2.30;99.90
20041;DHT22;10181;48.072;9.884;2024-03-07T00:33:20;2.30;99.90
20041;DHT22;10181;48.072;9.884;2024-03-07T00:35:47;2.30;99.90
20041;DHT22;10181;48.072;9.884;2024-03-07T00:38:12;2.30;99.90
20041;DHT22;10181;48.072;9.884;2024-03-07T00:40:38;2.30;99.90
20041;DHT22;10181;48.072;9.884;2024-03-07T00:43:04;2.40;99.90
20041;DHT22;10181;48.072;9.884;2024-03-07T00:45:31;2.30;99.90
20041;DHT22;10181;48.072;9.884;2024-03-07T00:47:58;2.30;99.90
20041;DHT22;10181;48.072;9.884;2024-03-07T00:50:24;2.40;99.90
20041;DHT22;10181;48.072;9.884;2024-03-07T00:52:50;2.40;99.90
20041;DHT22;10181;48.072;9.884;2024-03-07T00:55:16;2.40;99.90
20041;DHT22;10181;48.072;9.884;2024-03-07T00:57:41;2.40;99.90
20041;DHT22;10181;48.072;9.884;2024-03-07T01:00:07;2.40;99.90
20041;DHT22;10181;48.072;9.884;2024-03-07T01:02:40;2.40;99.90
20041;DHT22;10181;48.072;9.884;2024-03-07T01:05:09;2.40;99.90
20041;DHT22;10181;48.072;9.884;2024-03-07T01:07:35;2.40;99.90
20041;DHT22;10181;48.072;9.884;2024-03-07T01:10:03;2.40;99.90
20041;DHT22;10181;48.072;9.884;2024-03-07T01:12:31;2.40;99.90
20041;DHT22;10181;48.072;9.884;2024-03-07T01:14:57;2.40;99.90
20041;DHT22;10181;48.072;9.884;2024-03-07T01:17:24;2.40;99.90
20041;DHT22;10181;48.072;9.884;2024-03-07T01:19:49;2.40;99.90
20041;DHT22;10181;48.072;9.884;2024-03-07T01:22:15;2.40;99.90
20041;DHT22;10181;48.072;9.884;2024-03-07T01:24:40;2.50;99.90
20041;DHT22;10181;48.072;9.884;2024-03-07T01:27:06;2.50;99.90
20041;DHT22;10181;48.072;9.884;2024-03-07T01:29:32;2.40;99.90
20041;DHT22;10181;48.072;9.884;2024-03-07T01:31:57;2.40;99.90
20041;DHT22;10181;48.072;9.884;2024-03-07T01:34:23;2.40;99.90
20041;DHT22;10181;48.072;9.884;2024-03-07T01:36:48;2.40;99.90
20041;DHT22;10181;48.072;9.884;2024-03-07T01:39:14;2.40;99.90
20041;DHT22;10181;48.072;9.884;2024-03-07T01:41:40;2.40;99.90
20041;DHT22;10181;48.072;9.884;2024-03-07T01:44:05;2.40;99.90
20041;DHT22;10181;48.072;9.884;2024-03-07T01:46:32;2.40;99.90
20041;DHT22;10181;48.072;9.884;2024-03-07T01:48:59;2.40;99.90
20041;DHT22;10181;48.072;9.884;2024-03-07T01:51:25;2.40;99.90
20041;DHT22;10181;48.072;9.884;2024-03-07T01:53:52;2.50;99.90
20041;DHT22;10181;48.072;9.884;2024-03-07T01:56:18;2.50;99.90
20041;DHT22;10181;48.072;9.884;2024-03-07T01:58:47;2.50;99.90
20041;DHT22;10181;48.072;9.884;2024-03-07T02:01:13;2.40;99.90
20041;DHT22;10181;48.072;9.884;2024-03-07T02:03:40;2.40;99.90
20041;DHT22;10181;48.072;9.884;2024-03-07T02:06:05;2.40;99.90
20041;DHT22;10181;48.072;9.884;2024-03-07T02:08:31;2.40;99.90
20041;DHT22;10181;48.072;9.884;2024-03-07T02:10:58;2.40;99.90
20041;DHT22;10181;48.072;9.884;2024-03-07T02:13:23;2.50;99.90
20041;DHT22;10181;48.072;9.884;2024-03-07T02:15:49;2.50;99.90
20041;DHT22;10181;48.072;9.884;2024-03-07T02:18:14;2.50;99.90
20041;DHT22;10181;48.072;9.884;2024-03-07T02:20:46;2.50;99.90
20041;DHT22;10181;48.072;9.884;2024-03-07T02:23:12;2.50;99.90
20041;DHT22;10181;48.072;9.884;2024-03-07T02:25:38;2.50;99.90
20041;DHT22;10181;48.072;9.884;2024-03-07T02:28:04;2.60;99.90
20041;DHT22;10181;48.072;9.884;2024-03-07T02:30:30;2.60;99.90
20041;DHT22;10181;48.072;9.884;2024-03-07T02:32:58;2.60;99.90
20041;DHT22;10181;48.072;9.884;2024-03-07T02:35:25;2.60;99.90
20041;DHT22;10181;48.072;9.884;2024-03-07T02:37:51;2.60;99.90
20041;DHT22;10181;48.072;9.884;2024-03-07T02:40:16;2.60;99.90
20041;DHT22;10181;48.072;9.884;2024-03-07T02:42:42;2.60;99.90
20041;DHT22;10181;48.072;9.884;2024-03-07T02:45:09;2.60;99.90
20041;DHT22;10181;48.072;9.884;2024-03-07T02:47:35;2.60;99.90
20041;DHT22;10181;48.072;9.884;2024-03-07T02:50:04;2.70;99.90
20041;DHT22;10181;48.072;9.884;2024-03-07T02:52:31;2.70;99.90
20041;DHT22;10181;48.072;9.884;2024-03-07T02:54:57;2.70;99.90
20041;DHT22;10181;48.072;9.884;2024-03-07T02:57:23;2.70;99.90
20041;DHT22;10181;48.072;9.884;2024-03-07T02:59:48;2.70;99.90
20041;DHT22;10181;48.072;9.884;2024-03-07T03:02:14;2.70;99.90
20041;DHT22;10181;48.072;9.884;2024-03-07T03:04:40;2.70;99.90
20041;DHT22;10181;48.072;9.884;2024-03-07T03:07:05;2.70;99.90
20041;DHT22;10181;48.072;9.884;2024-03-07T03:09:32;2.70;99.90
20041;DHT22;10181;48.072;9.884;2024-03-07T03:11:59;2.70;99.90
20041;DHT22;10181;48.072;9.884;2024-03-07T03:14:24;2.70;99.90
20041;DHT22;10181;48.072;9.884;2024-03-07T03:16:50;2.70;99.90
20041;DHT22;10181;48.072;9.884;2024-03-07T03:19:15;2.70;99.90
20041;DHT22;10181;48.072;9.884;2024-03-07T03:21:41;2.80;99.90
20041;DHT22;10181;48.072;9.884;2024-03-07T03:24:08;2.80;99.90
20041;DHT22;10181;48.072;9.884;2024-03-07T03:26:33;2.80;99.90
20041;DHT22;10181;48.072;9.884;2024-03-07T03:28:59;2.80;99.90
20041;DHT22;10181;48.072;9.884;2024-03-07T03:31:25;2.80;99.90
20041;DHT22;10181;48.072;9.884;2024-03-07T03:33:51;2.90;99.90
20041;DHT22;10181;48.072;9.884;2024-03-07T03:36:17;2.90;99.90
20041;DHT22;10181;48.072;9.884;2024-03-07T03:38:44;2.90;99.90
20041;DHT22;10181;48.072;9.884;2024-03-07T03:41:17;3.00;99.90
20041;DHT22;10181;48.072;9.884;2024-03-07T03:43:43;3.00;99.90
20041;DHT22;10181;48.072;9.884;2024-03-07T03:46:12;3.00;99.90
20041;DHT22;10181;48.072;9.884;2024-03-07T03:48:40;3.00;99.90
20041;DHT22;10181;48.072;9.884;2024-03-07T03:51:09;3.00;99.90
20041;DHT22;10181;48.072;9.884;2024-03-07T03:53:38;3.00;99.90
20041;DHT22;10181;48.072;9.884;2024-03-07T03:56:04;3.00;99.90
20041;DHT22;10181;48.072;9.884;2024-03-07T03:58:31;3.00;99.90
20041;DHT22;10181;48.072;9.884;2024-03-07T04:00:56;3.00;99.90
20041;DHT22;10181;48.072;9.884;2024-03-07T04:03:24;3.00;99.90
20041;DHT22;10181;48.072;9.884;2024-03-07T04:05:49;3.00;99.90
20041;DHT22;10181;48.072;9.884;2024-03-07T04:08:15;3.00;99.90
20041;DHT22;10181;48.072;9.884;2024-03-07T04:10:40;3.00;99.90
20041;DHT22;10181;48.072;9.884;2024-03-07T04:13:06;3.00;99.90
20041;DHT22;10181;48.072;9.884;2024-03-07T04:15:33;3.00;99.90
20041;DHT22;10181;48.072;9.884;2024-03-07T04:17:59;3.00;99.90
20041;DHT22;10181;48.072;9.884;2024-03-07T04:20:24;3.00;99.90
20041;DHT22;10181;48.072;9.884;2024-03-07T04:22:50;3.00;99.90
20041;DHT22;10181;48.072;9.884;2024-03-07T04:25:16;3.00;99.90
20041;DHT22;10181;48.072;9.884;2024-03-07T04:27:42;3.00;99.90
20041;DHT22;10181;48.072;9.884;2024-03-07T04:30:08;3.00;99.90
20041;DHT22;10181;48.072;9.884;2024-03-07T04:32:36;3.10;99.90
20041;DHT22;10181;48.072;9.884;2024-03-07T04:35:02;3.10;99.90
20041;DHT22;10181;48.072;9.884;2024-03-07T04:37:29;3.10;99.90
20041;DHT22;10181;48.072;9.884;2024-03-07T04:39:55;3.10;99.90
20041;DHT22;10181;48.072;9.884;2024-03-07T04:42:21;3.20;99.90
20041;DHT22;10181;48.072;9.884;2024-03-07T04:44:46;3.20;99.90
20041;DHT22;10181;48.072;9.884;2024-03-07T04:47:12;3.20;99.90
20041;DHT22;10181;48.072;9.884;2024-03-07T04:49:37;3.20;99.90
20041;DHT22;10181;48.072;9.884;2024-03-07T04:52:03;3.20;99.90
20041;DHT22;10181;48.072;9.884;2024-03-07T04:54:30;3.20;99.90
20041;DHT22;10181;48.072;9.884;2024-03-07T04:56:57;3.30;99.90
20041;DHT22;10181;48.072;9.884;2024-03-07T04:59:23;3.30;99.90
20041;DHT22;10181;48.072;9.884;2024-03-07T05:01:49;3.30;99.90
20041;DHT22;10181;48.072;9.884;2024-03-07T05:04:16;3.30;99.90
20041;DHT22;10181;48.072;9.884;2024-03-07T05:06:42;3.20;99.90
20041;DHT22;10181;48.072;9.884;2024-03-07T05:09:10;3.20;99.90
20041;DHT22;10181;48.072;9.884;2024-03-07T05:11:47;3.20;99.90
20041;DHT22;10181;48.072;9.884;2024-03-07T05:14:12;3.20;99.90
20041;DHT22;10181;48.072;9.884;2024-03-07T05:16:38;3.20;99.90
20041;DHT22;10181;48.072;9.884;2024-03-07T05:19:03;3.20;99.90
20041;DHT22;10181;48.072;9.884;2024-03-07T05:21:30;3.20;99.90
20041;DHT22;10181;48.072;9.884;2024-03-07T05:24:02;3.30;99.90
20041;DHT22;10181;48.072;9.884;2024-03-07T05:26:28;3.30;99.90
20041;DHT22;10181;48.072;9.884;2024-03-07T05:29:02;3.30;99.90
20041;DHT22;10181;48.072;9.884;2024-03-07T05:31:31;3.30;99.90
20041;DHT22;10181;48.072;9.884;2024-03-07T05:34:03;3.30;99.90
20041;DHT22;10181;48.072;9.884;2024-03-07T05:36:32;3.30;99.90
20041;DHT22;10181;48.072;9.884;2024-03-07T05:38:58;3.30;99.90
20041;DHT22;10181;48.072;9.884;2024-03-07T05:41:35;3.30;99.90
20041;DHT22;10181;48.072;9.884;2024-03-07T05:44:00;3.20;99.90
20041;DHT22;10181;48.072;9.884;2024-03-07T05:46:26;3.30;99.90
20041;DHT22;10181;48.072;9.884;2024-03-07T05:48:52;3.30;99.90
20041;DHT22;10181;48.072;9.884;2024-03-07T05:51:22;3.30;99.90
20041;DHT22;10181;48.072;9.884;2024-03-07T05:53:48;3.20;99.90
20041;DHT22;10181;48.072;9.884;2024-03-07T05:56:14;3.10;99.90
20041;DHT22;10181;48.072;9.884;2024-03-07T05:58:39;3.10;99.90
20041;DHT22;10181;48.072;9.884;2024-03-07T06:01:05;3.10;99.90
20041;DHT22;10181;48.072;9.884;2024-03-07T06:03:31;3.20;99.90
20041;DHT22;10181;48.072;9.884;2024-03-07T06:05:57;3.20;99.90
20041;DHT22;10181;48.072;9.884;2024-03-07T06:08:23;3.20;99.90
20041;DHT22;10181;48.072;9.884;2024-03-07T06:10:48;3.20;99.90
20041;DHT22;10181;48.072;9.884;2024-03-07T06:13:16;3.20;99.90
20041;DHT22;10181;48.072;9.884;2024-03-07T06:15:46;3.20;99.90
20041;DHT22;10181;48.072;9.884;2024-03-07T06:18:12;3.10;99.90
20041;DHT22;10181;48.072;9.884;2024-03-07T06:20:41;3.10;99.90
20041;DHT22;10181;48.072;9.884;2024-03-07T06:23:07;3.20;99.90
20041;DHT22;10181;48.072;9.884;2024-03-07T06:25:34;3.20;99.90
20041;DHT22;10181;48.072;9.884;2024-03-07T06:28:06;3.10;99.90
20041;DHT22;10181;48.072;9.884;2024-03-07T06:30:38;3.10;99.90
20041;DHT22;10181;48.072;9.884;2024-03-07T06:33:08;3.20;99.90
20041;DHT22;10181;48.072;9.884;2024-03-07T06:35:34;3.10;99.90
20041;DHT22;10181;48.072;9.884;2024-03-07T06:38:04;3.10;99.90
20041;DHT22;10181;48.072;9.884;2024-03-07T06:40:31;3.10;99.90
20041;DHT22;10181;48.072;9.884;2024-03-07T06:43:00;3.20;99.90
20041;DHT22;10181;48.072;9.884;2024-03-07T06:45:26;3.10;99.90
20041;DHT22;10181;48.072;9.884;2024-03-07T06:47:52;3.10;99.90
20041;DHT22;10181;48.072;9.884;2024-03-07T06:50:21;3.10;99.90
20041;DHT22;10181;48.072;9.884;2024-03-07T06:52:47;3.00;99.90
20041;DHT22;10181;48.072;9.884;2024-03-07T06:55:15;3.00;99.90
20041;DHT22;10181;48.072;9.884;2024-03-07T06:57:45;3.00;99.90
20041;DHT22;10181;48.072;9.884;2024-03-07T07:00:12;3.00;99.90
20041;DHT22;10181;48.072;9.884;2024-03-07T07:02:38;3.10;99.90
20041;DHT22;10181;48.072;9.884;2024-03-07T07:05:06;3.00;99.90
20041;DHT22;10181;48.072;9.884;2024-03-07T07:07:39;3.00;99.90
20041;DHT22;10181;48.072;9.884;2024-03-07T07:10:07;3.10;99.90
20041;DHT22;10181;48.072;9.884;2024-03-07T07:12:35;3.10;99.90
20041;DHT22;10181;48.072;9.884;2024-03-07T07:15:02;3.10;99.90
20041;DHT22;10181;48.072;9.884;2024-03-07T07:17:29;3.10;99.90
20041;DHT22;10181;48.072;9.884;2024-03-07T07:19:56;3.10;99.90
20041;DHT22;10181;48.072;9.884;2024-03-07T07:22:22;3.10;99.90
20041;DHT22;10181;48.072;9.884;2024-03-07T07:24:48;3.10;99.90
20041;DHT22;10181;48.072;9.884;2024-03-07T07:27:13;3.10;99.90
20041;DHT22;10181;48.072;9.884;2024-03-07T07:29:39;3.10;99.90
20041;DHT22;10181;48.072;9.884;2024-03-07T07:32:05;3.10;99.90
20041;DHT22;10181;48.072;9.884;2024-03-07T07:34:30;3.10;99.90
20041;DHT22;10181;48.072;9.884;2024-03-07T07:36:56;3.00;99.90
20041;DHT22;10181;48.072;9.884;2024-03-07T07:39:22;3.10;99.90
20041;DHT22;10181;48.072;9.884;2024-03-07T07:41:48;3.00;99.90
20041;DHT22;10181;48.072;9.884;2024-03-07T07:44:13;3.00;99.90
20041;DHT22;10181;48.072;9.884;2024-03-07T07:46:39;3.00;99.90
20041;DHT22;10181;48.072;9.884;2024-03-07T07:49:06;3.00;99.90
20041;DHT22;10181;48.072;9.884;2024-03-07T07:51:31;3.10;99.90
20041;DHT22;10181;48.072;9.884;2024-03-07T07:53:57;3.10;99.90
20041;DHT22;10181;48.072;9.884;2024-03-07T07:56:23;3.10;99.90
20041;DHT22;10181;48.072;9.884;2024-03-07T07:58:50;3.10;99.90
20041;DHT22;10181;48.072;9.884;2024-03-07T08:01:17;3.10;99.90
20041;DHT22;10181;48.072;9.884;2024-03-07T08:03:45;3.10;99.90
20041;DHT22;10181;48.072;9.884;2024-03-07T08:06:11;3.20;99.90
20041;DHT22;10181;48.072;9.884;2024-03-07T08:08:36;3.20;99.90
20041;DHT22;10181;48.072;9.884;2024-03-07T08:11:02;3.20;99.90
20041;DHT22;10181;48.072;9.884;2024-03-07T08:13:28;3.20;99.90
20041;DHT22;10181;48.072;9.884;2024-03-07T08:15:53;3.20;99.90
20041;DHT22;10181;48.072;9.884;2024-03-07T08:18:19;3.30;99.90
20041;DHT22;10181;48.072;9.884;2024-03-07T08:20:46;3.30;99.90
20041;DHT22;10181;48.072;9.884;2024-03-07T08:23:13;3.30;99.90
20041;DHT22;10181;48.072;9.884;2024-03-07T08:25:39;3.30;99.90
20041;DHT22;10181;48.072;9.884;2024-03-07T08:28:06;3.30;99.90
20041;DHT22;10181;48.072;9.884;2024-03-07T08:30:32;3.40;99.90
20041;DHT22;10181;48.072;9.884;2024-03-07T08:32:59;3.40;99.90
20041;DHT22;10181;48.072;9.884;2024-03-07T08:35:27;3.50;99.90
20041;DHT22;10181;48.072;9.884;2024-03-07T08:37:54;3.40;99.90
20041;DHT22;10181;48.072;9.884;2024-03-07T08:40:27;3.40;99.90
20041;DHT22;10181;48.072;9.884;2024-03-07T08:42:56;3.40;99.90
20041;DHT22;10181;48.072;9.884;2024-03-07T08:45:23;3.50;99.90
20041;DHT22;10181;48.072;9.884;2024-03-07T08:47:50;3.50;99.90
20041;DHT22;10181;48.072;9.884;2024-03-07T08:50:17;3.50;99.90
20041;DHT22;10181;48.072;9.884;2024-03-07T08:52:47;3.50;99.90
20041;DHT22;10181;48.072;9.884;2024-03-07T08:55:18;3.60;99.90
20041;DHT22;10181;48.072;9.884;2024-03-07T08:57:44;3.50;99.90
20041;DHT22;10181;48.072;9.884;2024-03-07T09:00:12;3.50;99.90
20041;DHT22;10181;48.072;9.884;2024-03-07T09:02:48;3.40;99.90
20041;DHT22;10181;48.072;9.884;2024-03-07T09:05:21;3.50;99.90
20041;DHT22;10181;48.072;9.884;2024-03-07T09:07:48;3.50;99.90
20041;DHT22;10181;48.072;9.884;2024-03-07T09:10:14;3.60;99.90
20041;DHT22;10181;48.072;9.884;2024-03-07T09:12:44;3.70;99.90
20041;DHT22;10181;48.072;9.884;2024-03-07T09:15:10;3.70;99.90
20041;DHT22;10181;48.072;9.884;2024-03-07T09:17:37;3.70;99.90
20041;DHT22;10181;48.072;9.884;2024-03-07T09:20:03;3.70;99.90
20041;DHT22;10181;48.072;9.884;2024-03-07T09:22:32;3.80;99.90
20041;DHT22;10181;48.072;9.884;2024-03-07T09:24:58;3.80;99.90
20041;DHT22;10181;48.072;9.884;2024-03-07T09:27:24;3.90;99.90
20041;DHT22;10181;48.072;9.884;2024-03-07T09:29:50;4.00;99.90
20041;DHT22;10181;48.072;9.884;2024-03-07T09:32:16;4.10;99.90
20041;DHT22;10181;48.072;9.884;2024-03-07T09:34:42;4.00;99.90
20041;DHT22;10181;48.072;9.884;2024-03-07T09:37:08;3.90;99.90
20041;DHT22;10181;48.072;9.884;2024-03-07T09:39:34;4.00;99.90
20041;DHT22;10181;48.072;9.884;2024-03-07T09:42:07;4.00;99.90
20041;DHT22;10181;48.072;9.884;2024-03-07T09:44:36;4.10;99.90
20041;DHT22;10181;48.072;9.884;2024-03-07T09:47:05;4.10;99.90
20041;DHT22;10181;48.072;9.884;2024-03-07T09:49:30;4.10;99.90
20041;DHT22;10181;48.072;9.884;2024-03-07T09:51:58;4.10;99.90
20041;DHT22;10181;48.072;9.884;2024-03-07T09:54:26;4.20;99.90
20041;DHT22;10181;48.072;9.884;2024-03-07T09:56:58;4.20;99.90
20041;DHT22;10181;48.072;9.884;2024-03-07T09:59:25;4.20;99.90
20041;DHT22;10181;48.072;9.884;2024-03-07T10:01:55;4.30;99.90
20041;DHT22;10181;48.072;9.884;2024-03-07T10:04:37;4.30;99.90
20041;DHT22;10181;48.072;9.884;2024-03-07T10:07:03;4.40;99.90
20041;DHT22;10181;48.072;9.884;2024-03-07T10:09:29;4.40;99.90
20041;DHT22;10181;48.072;9.884;2024-03-07T10:11:58;4.40;99.90
20041;DHT22;10181;48.072;9.884;2024-03-07T10:14:23;4.40;99.90
20041;DHT22;10181;48.072;9.884;2024-03-07T10:16:49;4.40;99.90
20041;DHT22;10181;48.072;9.884;2024-03-07T10:19:15;4.30;99.90
20041;DHT22;10181;48.072;9.884;2024-03-07T10:21:41;4.40;99.90
20041;DHT22;10181;48.072;9.884;2024-03-07T10:24:07;4.30;99.90
20041;DHT22;10181;48.072;9.884;2024-03-07T10:26:37;4.40;99.90
20041;DHT22;10181;48.072;9.884;2024-03-07T10:29:04;4.30;99.90
20041;DHT22;10181;48.072;9.884;2024-03-07T10:31:32;4.30;99.90
20041;DHT22;10181;48.072;9.884;2024-03-07T10:34:01;4.40;99.90
20041;DHT22;10181;48.072;9.884;2024-03-07T10:36:28;4.50;99.90
20041;DHT22;10181;48.072;9.884;2024-03-07T10:39:00;4.60;99.90
20041;DHT22;10181;48.072;9.884;2024-03-07T10:41:45;4.70;99.90
20041;DHT22;10181;48.072;9.884;2024-03-07T10:44:24;4.70;99.90
20041;DHT22;10181;48.072;9.884;2024-03-07T10:46:55;4.70;99.90
20041;DHT22;10181;48.072;9.884;2024-03-07T10:49:21;4.80;99.90
20041;DHT22;10181;48.072;9.884;2024-03-07T10:54:48;4.80;99.90
20041;DHT22;10181;48.072;9.884;2024-03-07T11:00:03;4.80;99.90
20041;DHT22;10181;48.072;9.884;2024-03-07T11:02:47;4.90;99.90
20041;DHT22;10181;48.072;9.884;2024-03-07T11:05:16;4.80;99.90
20041;DHT22;10181;48.072;9.884;2024-03-07T11:07:42;4.80;99.90
20041;DHT22;10181;48.072;9.884;2024-03-07T11:10:10;4.80;99.90
20041;DHT22;10181;48.072;9.884;2024-03-07T11:12:40;4.70;99.90
20041;DHT22;10181;48.072;9.884;2024-03-07T11:15:08;4.70;99.90
20041;DHT22;10181;48.072;9.884;2024-03-07T11:17:42;4.80;99.90
20041;DHT22;10181;48.072;9.884;2024-03-07T11:20:35;4.80;99.90
20041;DHT22;10181;48.072;9.884;2024-03-07T11:23:01;4.70;99.90
20041;DHT22;10181;48.072;9.884;2024-03-07T11:25:48;4.70;99.90
20041;DHT22;10181;48.072;9.884;2024-03-07T11:28:16;4.60;99.90
20041;DHT22;10181;48.072;9.884;2024-03-07T11:30:41;4.60;99.90
20041;DHT22;10181;48.072;9.884;2024-03-07T11:33:07;4.60;99.90
20041;DHT22;10181;48.072;9.884;2024-03-07T11:35:33;4.60;99.90
20041;DHT22;10181;48.072;9.884;2024-03-07T11:38:02;4.60;99.90
20041;DHT22;10181;48.072;9.884;2024-03-07T11:42:56;4.60;99.90
20041;DHT22;10181;48.072;9.884;2024-03-07T11:45:25;4.60;99.90
20041;DHT22;10181;48.072;9.884;2024-03-07T11:47:58;4.50;99.90
20041;DHT22;10181;48.072;9.884;2024-03-07T11:50:32;4.60;99.90
20041;DHT22;10181;48.072;9.884;2024-03-07T11:53:01;4.60;99.90
20041;DHT22;10181;48.072;9.884;2024-03-07T11:55:27;4.60;99.90
20041;DHT22;10181;48.072;9.884;2024-03-07T11:58:09;4.60;99.90
20041;DHT22;10181;48.072;9.884;2024-03-07T12:00:38;4.50;99.90
20041;DHT22;10181;48.072;9.884;2024-03-07T12:03:08;4.40;99.90
20041;DHT22;10181;48.072;9.884;2024-03-07T12:05:34;4.50;99.90
20041;DHT22;10181;48.072;9.884;2024-03-07T12:07:59;4.60;99.90
20041;DHT22;10181;48.072;9.884;2024-03-07T12:10:26;4.60;99.90
20041;DHT22;10181;48.072;9.884;2024-03-07T12:12:51;4.60;99.90
20041;DHT22;10181;48.072;9.884;2024-03-07T12:15:17;4.60;99.90
20041;DHT22;10181;48.072;9.884;2024-03-07T12:17:46;4.60;99.90
20041;DHT22;10181;48.072;9.884;2024-03-07T12:20:15;4.60;99.90
20041;DHT22;10181;48.072;9.884;2024-03-07T12:23:02;4.60;99.90
20041;DHT22;10181;48.072;9.884;2024-03-07T12:25:31;4.50;99.90
20041;DHT22;10181;48.072;9.884;2024-03-07T12:28:10;4.50;99.90
20041;DHT22;10181;48.072;9.884;2024-03-07T12:30:50;4.50;99.90
20041;DHT22;10181;48.072;9.884;2024-03-07T12:33:17;4.60;99.90
20041;DHT22;10181;48.072;9.884;2024-03-07T12:35:43;4.50;99.90
20041;DHT22;10181;48.072;9.884;2024-03-07T12:38:10;4.70;99.90
20041;DHT22;10181;48.072;9.884;2024-03-07T12:40:41;4.70;99.90
20041;DHT22;10181;48.072;9.884;2024-03-07T12:43:15;4.70;99.90
20041;DHT22;10181;48.072;9.884;2024-03-07T12:45:51;4.60;99.90
20041;DHT22;10181;48.072;9.884;2024-03-07T12:48:20;4.70;99.90
20041;DHT22;10181;48.072;9.884;2024-03-07T12:50:49;4.70;99.90
20041;DHT22;10181;48.072;9.884;2024-03-07T12:53:19;4.60;99.90
20041;DHT22;10181;48.072;9.884;2024-03-07T12:55:45;4.60;99.90
20041;DHT22;10181;48.072;9.884;2024-03-07T12:58:12;4.70;99.90
20041;DHT22;10181;48.072;9.884;2024-03-07T13:00:39;4.70;99.90
20041;DHT22;10181;48.072;9.884;2024-03-07T13:03:09;4.70;99.90
20041;DHT22;10181;48.072;9.884;2024-03-07T13:05:37;4.70;99.90
20041;DHT22;10181;48.072;9.884;2024-03-07T13:08:09;4.70;99.90
20041;DHT22;10181;48.072;9.884;2024-03-07T13:10:44;4.60;99.90
20041;DHT22;10181;48.072;9.884;2024-03-07T13:13:09;4.70;99.90
20041;DHT22;10181;48.072;9.884;2024-03-07T13:15:39;4.70;99.90
20041;DHT22;10181;48.072;9.884;2024-03-07T13:18:07;4.70;99.90
20041;DHT22;10181;48.072;9.884;2024-03-07T13:20:34;4.70;99.90
20041;DHT22;10181;48.072;9.884;2024-03-07T13:23:00;4.80;99.90
20041;DHT22;10181;48.072;9.884;2024-03-07T13:25:27;4.80;99.90
20041;DHT22;10181;48.072;9.884;2024-03-07T13:30:25;4.80;99.90
20041;DHT22;10181;48.072;9.884;2024-03-07T13:32:58;4.80;99.90
20041;DHT22;10181;48.072;9.884;2024-03-07T13:35:25;4.80;99.90
20041;DHT22;10181;48.072;9.884;2024-03-07T13:37:53;4.80;99.90
20041;DHT22;10181;48.072;9.884;2024-03-07T13:40:23;4.70;99.90
20041;DHT22;10181;48.072;9.884;2024-03-07T13:42:59;4.70;99.90
20041;DHT22;10181;48.072;9.884;2024-03-07T13:45:36;4.70;99.90
20041;DHT22;10181;48.072;9.884;2024-03-07T13:48:09;4.60;99.90
20041;DHT22;10181;48.072;9.884;2024-03-07T13:50:36;4.60;99.90
20041;DHT22;10181;48.072;9.884;2024-03-07T13:53:03;4.60;99.90
20041;DHT22;10181;48.072;9.884;2024-03-07T14:09:33;4.80;99.90
20041;DHT22;10181;48.072;9.884;2024-03-07T14:12:34;4.80;99.90
20041;DHT22;10181;48.072;9.884;2024-03-07T14:21:03;4.80;99.90
20041;DHT22;10181;48.072;9.884;2024-03-07T14:32:30;4.90;99.90
20041;DHT22;10181;48.072;9.884;2024-03-07T14:35:17;4.90;99.90
20041;DHT22;10181;48.072;9.884;2024-03-07T14:37:53;4.90;99.90
20041;DHT22;10181;48.072;9.884;2024-03-07T14:40:21;4.90;99.90
20041;DHT22;10181;48.072;9.884;2024-03-07T14:42:49;4.90;99.90
20041;DHT22;10181;48.072;9.884;2024-03-07T14:45:23;4.90;99.90
20041;DHT22;10181;48.072;9.884;2024-03-07T14:47:51;5.00;99.90
20041;DHT22;10181;48.072;9.884;2024-03-07T14:50:20;5.10;99.90
20041;DHT22;10181;48.072;9.884;2024-03-07T14:52:47;5.10;99.90
20041;DHT22;10181;48.072;9.884;2024-03-07T14:55:13;5.10;99.90
20041;DHT22;10181;48.072;9.884;2024-03-07T14:57:42;5.10;99.90
20041;DHT22;10181;48.072;9.884;2024-03-07T15:00:11;5.20;99.90
20041;DHT22;10181;48.072;9.884;2024-03-07T15:02:52;5.20;99.90
20041;DHT22;10181;48.072;9.884;2024-03-07T15:05:20;5.30;99.90
20041;DHT22;10181;48.072;9.884;2024-03-07T15:07:46;5.30;99.90
20041;DHT22;10181;48.072;9.884;2024-03-07T15:10:23;5.30;99.90
20041;DHT22;10181;48.072;9.884;2024-03-07T15:12:52;5.30;99.90
20041;DHT22;10181;48.072;9.884;2024-03-07T15:15:19;5.30;99.90
20041;DHT22;10181;48.072;9.884;2024-03-07T15:17:45;5.30;99.90
20041;DHT22;10181;48.072;9.884;2024-03-07T15:20:12;5.30;99.90
20041;DHT22;10181;48.072;9.884;2024-03-07T15:22:48;5.30;99.90
20041;DHT22;10181;48.072;9.884;2024-03-07T15:25:14;5.30;99.90
20041;DHT22;10181;48.072;9.884;2024-03-07T15:27:43;5.30;99.90
20041;DHT22;10181;48.072;9.884;2024-03-07T15:30:10;5.30;99.90
20041;DHT22;10181;48.072;9.884;2024-03-07T15:32:40;5.20;99.90
20041;DHT22;10181;48.072;9.884;2024-03-07T15:35:07;5.20;99.90
20041;DHT22;10181;48.072;9.884;2024-03-07T15:37:37;5.20;99.90
20041;DHT22;10181;48.072;9.884;2024-03-07T15:40:09;5.20;99.90
20041;DHT22;10181;48.072;9.884;2024-03-07T15:42:38;5.20;99.90
20041;DHT22;10181;48.072;9.884;2024-03-07T15:45:08;5.20;99.90
20041;DHT22;10181;48.072;9.884;2024-03-07T15:47:46;5.30;99.90
20041;DHT22;10181;48.072;9.884;2024-03-07T15:50:13;5.30;99.90
20041;DHT22;10181;48.072;9.884;2024-03-07T15:52:40;5.30;99.90
20041;DHT22;10181;48.072;9.884;2024-03-07T15:55:10;5.30;99.90
20041;DHT22;10181;48.072;9.884;2024-03-07T15:57:52;5.30;99.90
20041;DHT22;10181;48.072;9.884;2024-03-07T16:00:25;5.20;99.90
20041;DHT22;10181;48.072;9.884;2024-03-07T16:02:58;5.20;99.90
20041;DHT22;10181;48.072;9.884;2024-03-07T16:05:28;5.20;99.90
20041;DHT22;10181;48.072;9.884;2024-03-07T16:07:57;5.20;99.90
20041;DHT22;10181;48.072;9.884;2024-03-07T16:10:27;5.20;99.90
20041;DHT22;10181;48.072;9.884;2024-03-07T16:12:54;5.10;99.90
20041;DHT22;10181;48.072;9.884;2024-03-07T16:15:20;5.20;99.90
20041;DHT22;10181;48.072;9.884;2024-03-07T16:17:51;5.20;99.90
20041;DHT22;10181;48.072;9.884;2024-03-07T16:20:18;5.10;99.90
20041;DHT22;10181;48.072;9.884;2024-03-07T16:22:47;5.10;99.90
20041;DHT22;10181;48.072;9.884;2024-03-07T16:25:17;5.10;99.90
20041;DHT22;10181;48.072;9.884;2024-03-07T16:27:43;5.00;99.90
20041;DHT22;10181;48.072;9.884;2024-03-07T16:30:19;5.00;99.90